sensor_id;sensor_type;location;lat;lon;timestamp;pressure;altitude;pressure_sealevel;temperature;humidity
74573;BME280;63071;51.526;-0.134;2022-11-11T00:01:31;101935.56;;;24.16;38.51
74573;BME280;63071;51.526;-0.134;2022-11-11T00:03:57;101949.31;;;24.15;38.62
74573;BME280;63071;51.526;-0.134;2022-11-11T00:06:22;101951.53;;;24.13;38.50
74573;BME280;63071;51.526;-0.134;2022-11-11T00:08:48;101945.06;;;24.14;38.69
74573;BME280;63071;51.526;-0.134;2022-11-11T00:11:14;101938.53;;;24.11;38.47
74573;BME280;63071;51.526;-0.134;2022-11-11T00:13:42;101934.72;;;24.12;38.48
74573;BME280;63071;51.526;-0.134;2022-11-11T00:16:14;101948.44;;;24.11;38.63
74573;BME280;63071;51.526;-0.134;2022-11-11T00:18:41;101941.13;;;24.08;38.75
74573;BME280;63071;51.526;-0.134;2022-11-11T00:21:26;101943.78;;;24.08;38.77
74573;BME280;63071;51.526;-0.134;2022-11-11T00:24:28;101941.88;;;24.08;38.34
74573;BME280;63071;51.526;-0.134;2022-11-11T00:27:13;101939.63;;;24.10;38.74
74573;BME280;63071;51.526;-0.134;2022-11-11T00:29:39;101936.97;;;24.10;38.72
74573;BME280;63071;51.526;-0.134;2022-11-11T00:32:06;101952.41;;;24.17;38.61
74573;BME280;63071;51.526;-0.134;2022-11-11T00:34:55;101952.75;;;24.15;38.58
74573;BME280;63071;51.526;-0.134;2022-11-11T00:37:40;101957.66;;;24.13;38.65
74573;BME280;63071;51.526;-0.134;2022-11-11T00:40:07;101962.56;;;24.11;38.50
74573;BME280;63071;51.526;-0.134;2022-11-11T00:42:33;101954.56;;;24.11;38.46
74573;BME280;63071;51.526;-0.134;2022-11-11T00:44:58;101967.56;;;24.13;38.39
74573;BME280;63071;51.526;-0.134;2022-11-11T00:47:24;101958.34;;;24.10;38.53
74573;BME280;63071;51.526;-0.134;2022-11-11T00:50:17;101959.56;;;24.13;38.38
74573;BME280;63071;51.526;-0.134;2022-11-11T00:53:07;101963.00;;;24.13;38.64
74573;BME280;63071;51.526;-0.134;2022-11-11T00:55:32;101958.75;;;24.12;38.76
74573;BME280;63071;51.526;-0.134;2022-11-11T00:57:58;101951.13;;;24.11;38.66
74573;BME280;63071;51.526;-0.134;2022-11-11T01:00:23;101958.00;;;24.12;38.48
74573;BME280;63071;51.526;-0.134;2022-11-11T01:02:48;101962.13;;;24.09;38.67
74573;BME280;63071;51.526;-0.134;2022-11-11T01:05:14;101959.81;;;24.08;38.42
74573;BME280;63071;51.526;-0.134;2022-11-11T01:07:39;101966.25;;;24.07;38.44
74573;BME280;63071;51.526;-0.134;2022-11-11T01:10:05;101963.97;;;24.05;38.77
74573;BME280;63071;51.526;-0.134;2022-11-11T01:12:31;101969.72;;;24.07;38.88
74573;BME280;63071;51.526;-0.134;2022-11-11T01:14:56;101962.47;;;24.08;38.51
74573;BME280;63071;51.526;-0.134;2022-11-11T01:17:21;101958.34;;;24.10;38.53
74573;BME280;63071;51.526;-0.134;2022-11-11T01:19:47;101967.91;;;24.11;38.71
74573;BME280;63071;51.526;-0.134;2022-11-11T01:22:12;101962.13;;;24.09;38.51
74573;BME280;63071;51.526;-0.134;2022-11-11T01:24:38;101967.47;;;24.09;38.53
74573;BME280;63071;51.526;-0.134;2022-11-11T01:27:03;101969.38;;;24.09;38.63
74573;BME280;63071;51.526;-0.134;2022-11-11T01:29:29;101967.47;;;24.09;38.70
74573;BME280;63071;51.526;-0.134;2022-11-11T01:31:54;101968.59;;;24.08;38.72
74573;BME280;63071;51.526;-0.134;2022-11-11T01:34:20;101965.16;;;24.08;38.62
74573;BME280;63071;51.526;-0.134;2022-11-11T01:36:45;101968.94;;;24.07;38.83
74573;BME280;63071;51.526;-0.134;2022-11-11T01:39:11;101951.38;;;24.06;38.60
74573;BME280;63071;51.526;-0.134;2022-11-11T01:41:36;101960.56;;;24.08;38.67
74573;BME280;63071;51.526;-0.134;2022-11-11T01:44:18;101959.81;;;24.08;38.95
74573;BME280;63071;51.526;-0.134;2022-11-11T01:46:57;101962.13;;;24.09;38.66
74573;BME280;63071;51.526;-0.134;2022-11-11T01:49:51;101961.72;;;24.07;38.73
74573;BME280;63071;51.526;-0.134;2022-11-11T01:52:25;101956.81;;;24.09;38.66
74573;BME280;63071;51.526;-0.134;2022-11-11T01:54:55;101956.53;;;24.14;38.52
74573;BME280;63071;51.526;-0.134;2022-11-11T02:00:05;101952.66;;;24.12;39.04
74573;BME280;63071;51.526;-0.134;2022-11-11T02:02:40;101945.34;;;24.09;38.99
74573;BME280;63071;51.526;-0.134;2022-11-11T02:05:11;101949.91;;;24.08;38.96
74573;BME280;63071;51.526;-0.134;2022-11-11T02:07:58;101958.75;;;24.12;39.03
74573;BME280;63071;51.526;-0.134;2022-11-11T02:10:29;101961.44;;;24.12;38.80
74573;BME280;63071;51.526;-0.134;2022-11-11T02:12:55;101957.91;;;24.08;38.79
74573;BME280;63071;51.526;-0.134;2022-11-11T02:15:39;101965.25;;;24.11;38.67
74573;BME280;63071;51.526;-0.134;2022-11-11T02:18:05;101964.09;;;24.12;38.92
74573;BME280;63071;51.526;-0.134;2022-11-11T02:20:38;101959.91;;;24.11;38.91
74573;BME280;63071;51.526;-0.134;2022-11-11T02:23:15;101969.03;;;24.10;39.21
74573;BME280;63071;51.526;-0.134;2022-11-11T02:25:47;101964.53;;;24.14;38.87
74573;BME280;63071;51.526;-0.134;2022-11-11T02:28:14;101962.28;;;24.16;38.84
74573;BME280;63071;51.526;-0.134;2022-11-11T02:30:41;101964.09;;;24.12;39.08
74573;BME280;63071;51.526;-0.134;2022-11-11T02:33:06;101958.44;;;24.14;39.24
74573;BME280;63071;51.526;-0.134;2022-11-11T02:35:37;101964.47;;;24.11;39.13
74573;BME280;63071;51.526;-0.134;2022-11-11T02:38:06;101960.56;;;24.08;39.44
74573;BME280;63071;51.526;-0.134;2022-11-11T02:40:44;101962.81;;;24.06;39.12
74573;BME280;63071;51.526;-0.134;2022-11-11T02:43:31;101954.13;;;24.09;39.40
74573;BME280;63071;51.526;-0.134;2022-11-11T02:45:58;101962.81;;;24.06;39.40
74573;BME280;63071;51.526;-0.134;2022-11-11T02:48:24;101951.03;;;24.07;39.42
74573;BME280;63071;51.526;-0.134;2022-11-11T02:50:51;101951.13;;;24.11;39.50
74573;BME280;63071;51.526;-0.134;2022-11-11T02:53:17;101943.09;;;24.11;39.45
74573;BME280;63071;51.526;-0.134;2022-11-11T02:55:42;101942.75;;;24.12;39.22
74573;BME280;63071;51.526;-0.134;2022-11-11T02:58:09;101939.63;;;24.10;39.29
74573;BME280;63071;51.526;-0.134;2022-11-11T03:00:34;101940.00;;;24.09;39.38
74573;BME280;63071;51.526;-0.134;2022-11-11T03:03:00;101947.66;;;24.10;39.24
74573;BME280;63071;51.526;-0.134;2022-11-11T03:05:25;101939.63;;;24.10;39.62
74573;BME280;63071;51.526;-0.134;2022-11-11T03:07:51;101941.44;;;24.06;39.40
74573;BME280;63071;51.526;-0.134;2022-11-11T03:10:16;101943.78;;;24.08;39.57
74573;BME280;63071;51.526;-0.134;2022-11-11T03:12:42;101940.00;;;24.09;39.84
74573;BME280;63071;51.526;-0.134;2022-11-11T03:15:08;101951.47;;;24.09;39.39
74573;BME280;63071;51.526;-0.134;2022-11-11T03:17:34;101942.75;;;24.12;39.58
74573;BME280;63071;51.526;-0.134;2022-11-11T03:25:25;101944.97;;;24.10;39.56
74573;BME280;63071;51.526;-0.134;2022-11-11T03:28:11;101937.34;;;24.09;39.78
74573;BME280;63071;51.526;-0.134;2022-11-11T03:30:40;101946.78;;;24.06;39.58
74573;BME280;63071;51.526;-0.134;2022-11-11T03:33:07;101926.81;;;24.00;39.65
74573;BME280;63071;51.526;-0.134;2022-11-11T03:35:33;101940.78;;;24.09;39.97
74573;BME280;63071;51.526;-0.134;2022-11-11T03:37:59;101925.84;;;24.08;39.80
74573;BME280;63071;51.526;-0.134;2022-11-11T03:40:45;101934.16;;;24.03;39.73
74573;BME280;63071;51.526;-0.134;2022-11-11T03:43:11;101930.78;;;24.06;39.96
74573;BME280;63071;51.526;-0.134;2022-11-11T03:45:37;101928.44;;;24.05;39.91
74573;BME280;63071;51.526;-0.134;2022-11-11T03:48:03;101938.78;;;24.06;40.02
74573;BME280;63071;51.526;-0.134;2022-11-11T03:50:28;101943.00;;;24.07;39.75
74573;BME280;63071;51.526;-0.134;2022-11-11T03:52:54;101940.00;;;24.09;39.87
74573;BME280;63071;51.526;-0.134;2022-11-11T03:55:19;101940.00;;;24.09;39.67
74573;BME280;63071;51.526;-0.134;2022-11-11T03:57:45;101945.69;;;24.07;39.99
74573;BME280;63071;51.526;-0.134;2022-11-11T04:00:16;101931.53;;;24.07;39.81
74573;BME280;63071;51.526;-0.134;2022-11-11T04:02:42;101945.25;;;24.05;40.13
74573;BME280;63071;51.526;-0.134;2022-11-11T04:05:26;101951.03;;;24.07;39.86
74573;BME280;63071;51.526;-0.134;2022-11-11T04:08:13;101938.44;;;24.08;39.75
74573;BME280;63071;51.526;-0.134;2022-11-11T04:11:00;101943.88;;;24.11;39.77
74573;BME280;63071;51.526;-0.134;2022-11-11T04:13:29;101943.88;;;24.11;39.84
74573;BME280;63071;51.526;-0.134;2022-11-11T04:16:13;101947.31;;;24.12;39.83
74573;BME280;63071;51.526;-0.134;2022-11-11T04:18:39;101931.53;;;24.07;40.02
74573;BME280;63071;51.526;-0.134;2022-11-11T04:21:23;101941.13;;;24.08;40.08
74573;BME280;63071;51.526;-0.134;2022-11-11T04:24:18;101932.69;;;24.06;40.31
74573;BME280;63071;51.526;-0.134;2022-11-11T04:27:05;101934.72;;;24.12;39.99
74573;BME280;63071;51.526;-0.134;2022-11-11T04:29:32;101942.41;;;24.14;39.86
74573;BME280;63071;51.526;-0.134;2022-11-11T04:34:47;101942.31;;;24.10;40.05
74573;BME280;63071;51.526;-0.134;2022-11-11T04:37:13;101938.44;;;24.08;40.23
74573;BME280;63071;51.526;-0.134;2022-11-11T04:39:39;101941.03;;;24.04;39.71
74573;BME280;63071;51.526;-0.134;2022-11-11T04:42:23;101939.22;;;24.08;39.81
74573;BME280;63071;51.526;-0.134;2022-11-11T04:44:49;101936.19;;;24.10;39.84
74573;BME280;63071;51.526;-0.134;2022-11-11T04:47:34;101941.19;;;24.11;40.32
74573;BME280;63071;51.526;-0.134;2022-11-11T04:49:59;101946.13;;;24.09;40.30
74573;BME280;63071;51.526;-0.134;2022-11-11T04:52:25;101953.69;;;24.07;39.90
74573;BME280;63071;51.526;-0.134;2022-11-11T04:54:51;101952.13;;;24.06;39.78
74573;BME280;63071;51.526;-0.134;2022-11-11T04:57:44;101949.13;;;24.08;39.91
74573;BME280;63071;51.526;-0.134;2022-11-11T05:00:12;101942.22;;;24.07;40.32
74573;BME280;63071;51.526;-0.134;2022-11-11T05:02:38;101948.78;;;24.09;39.89
74573;BME280;63071;51.526;-0.134;2022-11-11T05:05:23;101947.66;;;24.10;39.98
74573;BME280;63071;51.526;-0.134;2022-11-11T05:07:50;101948.44;;;24.11;39.83
74573;BME280;63071;51.526;-0.134;2022-11-11T05:10:34;101948.34;;;24.07;40.30
74573;BME280;63071;51.526;-0.134;2022-11-11T05:13:00;101947.66;;;24.10;39.87
74573;BME280;63071;51.526;-0.134;2022-11-11T05:15:44;101950.69;;;24.09;40.12
74573;BME280;63071;51.526;-0.134;2022-11-11T05:18:28;101943.00;;;24.07;40.13
74573;BME280;63071;51.526;-0.134;2022-11-11T05:21:25;101941.03;;;24.04;39.77
74573;BME280;63071;51.526;-0.134;2022-11-11T05:23:52;101947.50;;;24.03;40.22
74573;BME280;63071;51.526;-0.134;2022-11-11T05:26:36;101939.06;;;24.01;39.92
74573;BME280;63071;51.526;-0.134;2022-11-11T05:29:02;101951.53;;;24.13;39.61
74573;BME280;63071;51.526;-0.134;2022-11-11T05:31:28;101945.25;;;24.05;40.25
74573;BME280;63071;51.526;-0.134;2022-11-11T05:33:55;101938.97;;;23.97;39.93
74573;BME280;63071;51.526;-0.134;2022-11-11T05:36:20;101942.94;;;24.04;40.22
74573;BME280;63071;51.526;-0.134;2022-11-11T05:38:46;101946.38;;;24.04;40.30
74573;BME280;63071;51.526;-0.134;2022-11-11T05:41:11;101956.28;;;24.04;40.16
74573;BME280;63071;51.526;-0.134;2022-11-11T05:43:37;101947.84;;;24.02;39.99
74573;BME280;63071;51.526;-0.134;2022-11-11T05:46:02;101952.13;;;24.06;40.07
74573;BME280;63071;51.526;-0.134;2022-11-11T05:48:30;101954.47;;;24.08;39.96
74573;BME280;63071;51.526;-0.134;2022-11-11T05:50:57;101946.38;;;24.04;39.96
74573;BME280;63071;51.526;-0.134;2022-11-11T05:53:23;101944.41;;;24.01;40.07
74573;BME280;63071;51.526;-0.134;2022-11-11T05:55:51;101959.63;;;24.00;40.27
74573;BME280;63071;51.526;-0.134;2022-11-11T05:58:17;101964.22;;;24.00;40.28
74573;BME280;63071;51.526;-0.134;2022-11-11T06:00:43;101948.88;;;23.97;40.03
74573;BME280;63071;51.526;-0.134;2022-11-11T06:03:09;101950.41;;;23.98;40.10
74573;BME280;63071;51.526;-0.134;2022-11-11T06:05:37;101961.09;;;23.98;40.02
74573;BME280;63071;51.526;-0.134;2022-11-11T06:08:03;101962.72;;;24.03;40.11
74573;BME280;63071;51.526;-0.134;2022-11-11T06:10:29;101956.28;;;24.04;40.18
74573;BME280;63071;51.526;-0.134;2022-11-11T06:12:54;101956.28;;;24.04;40.06
74573;BME280;63071;51.526;-0.134;2022-11-11T06:15:35;101955.50;;;24.03;40.22
74573;BME280;63071;51.526;-0.134;2022-11-11T06:18:01;101960.56;;;24.08;40.06
74573;BME280;63071;51.526;-0.134;2022-11-11T06:20:27;101965.16;;;24.08;40.26
74573;BME280;63071;51.526;-0.134;2022-11-11T06:22:53;101973.59;;;24.10;40.30
74573;BME280;63071;51.526;-0.134;2022-11-11T06:25:29;101968.94;;;24.07;39.92
74573;BME280;63071;51.526;-0.134;2022-11-11T06:28:15;101959.63;;;24.16;39.92
74573;BME280;63071;51.526;-0.134;2022-11-11T06:30:41;101970.72;;;24.18;39.95
74573;BME280;63071;51.526;-0.134;2022-11-11T06:33:07;101978.69;;;24.15;40.15
74573;BME280;63071;51.526;-0.134;2022-11-11T06:35:39;101985.22;;;24.17;40.29
74573;BME280;63071;51.526;-0.134;2022-11-11T06:38:07;101985.31;;;24.21;39.83
74573;BME280;63071;51.526;-0.134;2022-11-11T06:40:33;101992.03;;;24.15;40.06
74573;BME280;63071;51.526;-0.134;2022-11-11T06:42:59;101995.91;;;24.17;39.90
74573;BME280;63071;51.526;-0.134;2022-11-11T06:45:26;101991.00;;;24.19;40.10
74573;BME280;63071;51.526;-0.134;2022-11-11T06:47:52;101992.91;;;24.19;39.87
74573;BME280;63071;51.526;-0.134;2022-11-11T06:50:18;102000.97;;;24.23;39.69
74573;BME280;63071;51.526;-0.134;2022-11-11T06:52:44;101989.19;;;24.24;39.53
74573;BME280;63071;51.526;-0.134;2022-11-11T06:55:09;102002.44;;;24.20;39.85
74573;BME280;63071;51.526;-0.134;2022-11-11T06:57:35;102002.88;;;24.22;39.57
74573;BME280;63071;51.526;-0.134;2022-11-11T07:00:02;101999.34;;;24.18;40.16
74573;BME280;63071;51.526;-0.134;2022-11-11T07:02:28;102005.47;;;24.18;40.09
74573;BME280;63071;51.526;-0.134;2022-11-11T07:04:54;101995.81;;;24.14;40.23
74573;BME280;63071;51.526;-0.134;2022-11-11T07:07:19;102005.72;;;24.13;39.98
74573;BME280;63071;51.526;-0.134;2022-11-11T07:09:44;102008.84;;;24.15;40.04
74573;BME280;63071;51.526;-0.134;2022-11-11T07:12:10;102003.41;;;24.12;40.42
74573;BME280;63071;51.526;-0.134;2022-11-11T07:14:35;102006.84;;;24.12;40.47
74573;BME280;63071;51.526;-0.134;2022-11-11T07:17:01;102016.84;;;24.15;39.69
74573;BME280;63071;51.526;-0.134;2022-11-11T07:19:26;102021.16;;;24.20;40.00
74573;BME280;63071;51.526;-0.134;2022-11-11T07:21:52;102016.09;;;24.15;40.22
74573;BME280;63071;51.526;-0.134;2022-11-11T07:24:17;102019.94;;;24.17;39.81
74573;BME280;63071;51.526;-0.134;2022-11-11T07:26:42;102025.63;;;24.16;40.18
74573;BME280;63071;51.526;-0.134;2022-11-11T07:29:08;102039.31;;;24.14;40.21
74573;BME280;63071;51.526;-0.134;2022-11-11T07:31:34;102041.56;;;24.12;39.82
74573;BME280;63071;51.526;-0.134;2022-11-11T07:33:59;102042.38;;;24.13;40.29
74573;BME280;63071;51.526;-0.134;2022-11-11T07:36:25;102035.34;;;24.08;39.99
74573;BME280;63071;51.526;-0.134;2022-11-11T07:38:50;102046.22;;;24.15;40.39
74573;BME280;63071;51.526;-0.134;2022-11-11T07:41:16;102047.34;;;24.14;40.21
74573;BME280;63071;51.526;-0.134;2022-11-11T07:43:42;102038.03;;;24.24;40.01
74573;BME280;63071;51.526;-0.134;2022-11-11T07:46:07;102041.75;;;24.19;40.05
74573;BME280;63071;51.526;-0.134;2022-11-11T07:48:33;102042.94;;;24.22;39.92
74573;BME280;63071;51.526;-0.134;2022-11-11T07:50:58;102050.19;;;24.22;39.63
74573;BME280;63071;51.526;-0.134;2022-11-11T07:53:24;102058.53;;;24.20;40.08
74573;BME280;63071;51.526;-0.134;2022-11-11T07:55:53;102053.53;;;24.18;40.09
74573;BME280;63071;51.526;-0.134;2022-11-11T07:58:18;102057.69;;;24.16;40.08
74573;BME280;63071;51.526;-0.134;2022-11-11T08:00:44;102063.03;;;24.16;40.33
74573;BME280;63071;51.526;-0.134;2022-11-11T08:03:09;102073.03;;;24.19;40.02
74573;BME280;63071;51.526;-0.134;2022-11-11T08:05:35;102086.13;;;24.24;39.63
74573;BME280;63071;51.526;-0.134;2022-11-11T08:08:04;102082.69;;;24.24;39.72
74573;BME280;63071;51.526;-0.134;2022-11-11T08:10:30;102068.38;;;24.16;39.75
74573;BME280;63071;51.526;-0.134;2022-11-11T08:12:56;102094.03;;;24.20;39.87
74573;BME280;63071;51.526;-0.134;2022-11-11T08:15:40;102093.63;;;24.18;39.97
74573;BME280;63071;51.526;-0.134;2022-11-11T08:18:06;102087.94;;;24.20;40.45
74573;BME280;63071;51.526;-0.134;2022-11-11T08:20:32;102081.81;;;24.19;39.99
74573;BME280;63071;51.526;-0.134;2022-11-11T08:22:57;102084.59;;;24.23;39.88
74573;BME280;63071;51.526;-0.134;2022-11-11T08:25:24;102083.13;;;24.26;39.96
74573;BME280;63071;51.526;-0.134;2022-11-11T08:28:03;102092.59;;;24.23;40.10
74573;BME280;63071;51.526;-0.134;2022-11-11T08:30:31;102087.16;;;24.19;39.92
74573;BME280;63071;51.526;-0.134;2022-11-11T08:33:02;102093.47;;;24.27;39.87
74573;BME280;63071;51.526;-0.134;2022-11-11T08:35:29;102088.47;;;24.26;40.01
74573;BME280;63071;51.526;-0.134;2022-11-11T08:37:55;102086.81;;;24.21;40.20
74573;BME280;63071;51.526;-0.134;2022-11-11T08:40:21;102088.69;;;24.20;40.22
74573;BME280;63071;51.526;-0.134;2022-11-11T08:42:47;102090.69;;;24.24;39.83
74573;BME280;63071;51.526;-0.134;2022-11-11T08:45:12;102089.13;;;24.23;40.08
74573;BME280;63071;51.526;-0.134;2022-11-11T08:47:38;102092.59;;;24.23;39.92
74573;BME280;63071;51.526;-0.134;2022-11-11T08:50:05;102094.03;;;24.20;39.82
74573;BME280;63071;51.526;-0.134;2022-11-11T08:52:31;102090.00;;;24.27;39.76
74573;BME280;63071;51.526;-0.134;2022-11-11T08:54:57;102092.25;;;24.25;39.79
74573;BME280;63071;51.526;-0.134;2022-11-11T08:57:25;102112.22;;;24.31;40.07
74573;BME280;63071;51.526;-0.134;2022-11-11T08:59:50;102101.38;;;24.24;40.02
74573;BME280;63071;51.526;-0.134;2022-11-11T09:02:16;102113.19;;;24.23;40.04
74573;BME280;63071;51.526;-0.134;2022-11-11T09:04:41;102104.31;;;24.18;40.27
74573;BME280;63071;51.526;-0.134;2022-11-11T09:07:08;102107.16;;;24.26;39.79
74573;BME280;63071;51.526;-0.134;2022-11-11T09:09:34;102107.59;;;24.28;40.11
74573;BME280;63071;51.526;-0.134;2022-11-11T09:12:00;102114.41;;;24.25;39.77
74573;BME280;63071;51.526;-0.134;2022-11-11T09:14:25;102107.16;;;24.26;39.86
74573;BME280;63071;51.526;-0.134;2022-11-11T09:16:51;102118.19;;;24.24;39.91
74573;BME280;63071;51.526;-0.134;2022-11-11T09:19:16;102118.34;;;24.15;39.90
74573;BME280;63071;51.526;-0.134;2022-11-11T09:21:42;102114.31;;;24.22;40.06
74573;BME280;63071;51.526;-0.134;2022-11-11T09:24:08;102119.81;;;24.29;39.49
74573;BME280;63071;51.526;-0.134;2022-11-11T09:26:33;102125.75;;;24.22;40.05
74573;BME280;63071;51.526;-0.134;2022-11-11T09:28:58;102118.53;;;24.23;39.97
74573;BME280;63071;51.526;-0.134;2022-11-11T09:31:24;102120.69;;;24.17;40.13
74573;BME280;63071;51.526;-0.134;2022-11-11T09:33:50;102136.22;;;24.27;39.89
74573;BME280;63071;51.526;-0.134;2022-11-11T09:36:16;102135.34;;;24.23;39.96
74573;BME280;63071;51.526;-0.134;2022-11-11T09:38:42;102145.22;;;24.23;40.45
74573;BME280;63071;51.526;-0.134;2022-11-11T09:41:21;102131.88;;;24.23;40.29
74573;BME280;63071;51.526;-0.134;2022-11-11T09:43:57;102126.81;;;24.17;40.32
74573;BME280;63071;51.526;-0.134;2022-11-11T09:47:10;102146.38;;;24.22;40.62
74573;BME280;63071;51.526;-0.134;2022-11-11T09:52:17;102144.13;;;24.24;40.48
74573;BME280;63071;51.526;-0.134;2022-11-11T09:55:02;102157.16;;;24.25;40.43
74573;BME280;63071;51.526;-0.134;2022-11-11T09:57:39;102163.69;;;24.28;40.37
74573;BME280;63071;51.526;-0.134;2022-11-11T10:00:28;102167.47;;;24.27;40.50
74573;BME280;63071;51.526;-0.134;2022-11-11T10:05:50;102179.66;;;24.40;40.32
74573;BME280;63071;51.526;-0.134;2022-11-11T10:10:51;102185.00;;;24.40;40.17
74573;BME280;63071;51.526;-0.134;2022-11-11T10:13:35;102195.25;;;24.38;40.57
74573;BME280;63071;51.526;-0.134;2022-11-11T10:18:48;102193.44;;;24.42;40.10
74573;BME280;63071;51.526;-0.134;2022-11-11T10:21:30;102198.03;;;24.42;40.16
74573;BME280;63071;51.526;-0.134;2022-11-11T10:24:01;102194.53;;;24.53;39.70
74573;BME280;63071;51.526;-0.134;2022-11-11T10:26:39;102200.22;;;24.52;39.84
74573;BME280;63071;51.526;-0.134;2022-11-11T10:29:14;102206.47;;;24.44;40.56
74573;BME280;63071;51.526;-0.134;2022-11-11T10:31:42;102206.22;;;24.49;40.18
74573;BME280;63071;51.526;-0.134;2022-11-11T10:34:13;102208.78;;;24.45;40.13
74573;BME280;63071;51.526;-0.134;2022-11-11T10:36:52;102210.25;;;24.43;40.40
74573;BME280;63071;51.526;-0.134;2022-11-11T10:42:16;102210.34;;;24.46;40.07
74573;BME280;63071;51.526;-0.134;2022-11-11T10:44:42;102224.06;;;24.45;40.23
74573;BME280;63071;51.526;-0.134;2022-11-11T10:47:19;102217.38;;;24.51;40.14
74573;BME280;63071;51.526;-0.134;2022-11-11T10:50:15;102216.38;;;24.43;40.48
74573;BME280;63071;51.526;-0.134;2022-11-11T10:53:11;102233.09;;;24.40;40.51
74573;BME280;63071;51.526;-0.134;2022-11-11T10:55:51;102217.25;;;24.47;40.07
74573;BME280;63071;51.526;-0.134;2022-11-11T11:00:59;102218.72;;;24.45;39.82
74573;BME280;63071;51.526;-0.134;2022-11-11T11:03:49;102217.66;;;24.49;40.20
74573;BME280;63071;51.526;-0.134;2022-11-11T11:06:24;102211.47;;;24.45;40.47
74573;BME280;63071;51.526;-0.134;2022-11-11T11:08:56;102217.66;;;24.49;39.37
74573;BME280;63071;51.526;-0.134;2022-11-11T11:11:38;102221.28;;;24.41;40.04
74573;BME280;63071;51.526;-0.134;2022-11-11T11:14:19;102210.16;;;24.39;40.51
74573;BME280;63071;51.526;-0.134;2022-11-11T11:16:49;102208.19;;;24.36;40.14
74573;BME280;63071;51.526;-0.134;2022-11-11T11:19:17;102223.44;;;24.35;40.33
74573;BME280;63071;51.526;-0.134;2022-11-11T11:21:54;102203.00;;;24.27;40.56
74573;BME280;63071;51.526;-0.134;2022-11-11T11:24:27;102210.53;;;24.37;40.31
74573;BME280;63071;51.526;-0.134;2022-11-11T11:26:55;102206.72;;;24.38;40.33
74573;BME280;63071;51.526;-0.134;2022-11-11T11:29:33;102222.41;;;24.40;40.00
74573;BME280;63071;51.526;-0.134;2022-11-11T11:32:29;102212.59;;;24.44;40.31
74573;BME280;63071;51.526;-0.134;2022-11-11T11:34:56;102209.16;;;24.44;40.30
74573;BME280;63071;51.526;-0.134;2022-11-11T11:37:24;102218.28;;;24.43;39.99
74573;BME280;63071;51.526;-0.134;2022-11-11T11:40:06;102208.72;;;24.42;40.16
74573;BME280;63071;51.526;-0.134;2022-11-11T11:42:34;102211.03;;;24.43;40.19
74573;BME280;63071;51.526;-0.134;2022-11-11T11:48:19;102209.22;;;24.47;40.20
74573;BME280;63071;51.526;-0.134;2022-11-11T11:53:51;102214.34;;;24.52;40.28
74573;BME280;63071;51.526;-0.134;2022-11-11T11:59:04;102208.69;;;24.54;40.02
74573;BME280;63071;51.526;-0.134;2022-11-11T12:04:40;102210.22;;;24.55;40.04
74573;BME280;63071;51.526;-0.134;2022-11-11T12:07:22;102219.28;;;24.50;40.64
74573;BME280;63071;51.526;-0.134;2022-11-11T12:12:39;102217.66;;;24.62;40.51
74573;BME280;63071;51.526;-0.134;2022-11-11T12:20:49;102222.28;;;24.65;40.16
74573;BME280;63071;51.526;-0.134;2022-11-11T12:28:30;102211.78;;;24.72;40.07
74573;BME280;63071;51.526;-0.134;2022-11-11T12:31:15;102203.41;;;24.73;40.52
74573;BME280;63071;51.526;-0.134;2022-11-11T12:34:09;102209.88;;;24.72;40.23
74573;BME280;63071;51.526;-0.134;2022-11-11T12:37:07;102205.13;;;24.82;40.24
74573;BME280;63071;51.526;-0.134;2022-11-11T12:45:01;102204.97;;;24.74;40.54
74573;BME280;63071;51.526;-0.134;2022-11-11T12:55:50;102215.81;;;24.82;40.60
74573;BME280;63071;51.526;-0.134;2022-11-11T12:58:24;102224.88;;;24.77;40.85
74573;BME280;63071;51.526;-0.134;2022-11-11T13:03:55;102214.38;;;24.84;40.33
74573;BME280;63071;51.526;-0.134;2022-11-11T13:11:51;102211.34;;;24.70;40.69
74573;BME280;63071;51.526;-0.134;2022-11-11T13:15:26;102209.56;;;24.74;40.71
74573;BME280;63071;51.526;-0.134;2022-11-11T13:17:26;102198.41;;;24.72;40.21
74573;BME280;63071;51.526;-0.134;2022-11-11T13:20:04;102208.69;;;24.70;40.69
74573;BME280;63071;51.526;-0.134;2022-11-11T13:22:32;102202.19;;;24.71;40.58
74573;BME280;63071;51.526;-0.134;2022-11-11T13:25:03;102200.31;;;24.71;40.00
74573;BME280;63071;51.526;-0.134;2022-11-11T13:32:46;102198.16;;;24.77;41.04
74573;BME280;63071;51.526;-0.134;2022-11-11T13:35:26;102190.03;;;24.73;40.54
74573;BME280;63071;51.526;-0.134;2022-11-11T13:37:54;102191.94;;;24.73;41.23
74573;BME280;63071;51.526;-0.134;2022-11-11T13:40:41;102195.81;;;24.75;41.24
74573;BME280;63071;51.526;-0.134;2022-11-11T13:43:19;102188.16;;;24.74;40.93
74573;BME280;63071;51.526;-0.134;2022-11-11T13:45:52;102187.44;;;24.77;40.92
74573;BME280;63071;51.526;-0.134;2022-11-11T13:54:04;102201.06;;;24.88;40.33
74573;BME280;63071;51.526;-0.134;2022-11-11T13:56:40;102201.75;;;25.01;39.95
74573;BME280;63071;51.526;-0.134;2022-11-11T13:59:21;102200.19;;;24.99;40.20
74573;BME280;63071;51.526;-0.134;2022-11-11T14:12:50;102195.16;;;25.14;40.18
74573;BME280;63071;51.526;-0.134;2022-11-11T14:15:39;102192.88;;;25.12;40.38
74573;BME280;63071;51.526;-0.134;2022-11-11T14:20:43;102182.94;;;25.13;40.35
74573;BME280;63071;51.526;-0.134;2022-11-11T14:23:23;102177.84;;;25.24;40.11
74573;BME280;63071;51.526;-0.134;2022-11-11T14:26:14;102168.84;;;25.32;40.07
74573;BME280;63071;51.526;-0.134;2022-11-11T14:28:59;102171.44;;;25.28;40.07
74573;BME280;63071;51.526;-0.134;2022-11-11T14:31:48;102179.19;;;25.33;39.33
74573;BME280;63071;51.526;-0.134;2022-11-11T14:34:30;102179.69;;;25.39;39.13
74573;BME280;63071;51.526;-0.134;2022-11-11T14:37:20;102184.97;;;25.35;39.95
74573;BME280;63071;51.526;-0.134;2022-11-11T14:39:51;102173.41;;;25.31;39.20
74573;BME280;63071;51.526;-0.134;2022-11-11T14:44:59;102183.41;;;25.34;39.17